Time;durP1;ratioP1;P1;durP2;ratioP2;P2;SDS_P1;SDS_P2;PMS_P1;PMS_P2;Temp;Humidity;BMP_temperature;BMP_pressure;BME280_temperature;BME280_humidity;BME280_pressure;Samples;Min_cycle;Max_cycle;Signal;HPM_P1;HPM_P2
2023/07/23 00:02:07;;;;;;;12.00;5.75;;;15.00;99.90;;;;;;4969038;28;20286;-83
2023/07/23 00:04:32;;;;;;;11.70;5.57;;;15.00;99.90;;;;;;4966979;28;20492;-83
2023/07/23 00:06:58;;;;;;;12.82;5.72;;;15.00;99.90;;;;;;4967350;28;20073;-83
2023/07/23 00:09:24;;;;;;;11.90;5.65;;;15.00;99.90;;;;;;4967997;28;20496;-83
2023/07/23 00:11:49;;;;;;;12.45;5.50;;;15.00;99.90;;;;;;4981865;28;20035;-82
2023/07/23 00:14:15;;;;;;;11.88;5.15;;;15.00;99.90;;;;;;4968161;28;20041;-82
2023/07/23 00:16:41;;;;;;;12.10;4.97;;;15.00;99.90;;;;;;4967277;28;20030;-83
2023/07/23 00:19:07;;;;;;;11.57;5.55;;;15.00;99.90;;;;;;4967613;28;20050;-83
2023/07/23 00:21:33;;;;;;;14.57;5.70;;;15.00;99.90;;;;;;4981633;28;20182;-82
2023/07/23 00:23:59;;;;;;;11.63;5.78;;;15.00;99.90;;;;;;4966751;28;20581;-83
2023/07/23 00:26:24;;;;;;;11.52;5.07;;;14.90;99.90;;;;;;4967824;28;20038;-84
2023/07/23 00:28:50;;;;;;;11.82;5.22;;;14.90;99.90;;;;;;4961185;28;20034;-82
2023/07/23 00:31:16;;;;;;;11.38;5.20;;;14.90;99.90;;;;;;4995733;28;20037;-83
2023/07/23 00:33:41;;;;;;;13.20;5.93;;;14.90;99.90;;;;;;4985703;28;20041;-83
2023/07/23 00:36:07;;;;;;;12.02;5.32;;;14.90;99.90;;;;;;5004018;28;20065;-82
2023/07/23 00:38:33;;;;;;;12.60;5.80;;;14.90;99.90;;;;;;4987172;28;20038;-83
2023/07/23 00:40:59;;;;;;;12.70;5.63;;;14.80;99.90;;;;;;4986398;28;20053;-83
2023/07/23 00:43:25;;;;;;;12.80;5.63;;;14.90;99.90;;;;;;4985378;28;20484;-82
2023/07/23 00:45:50;;;;;;;11.68;5.40;;;14.80;99.90;;;;;;5002111;28;21074;-84
2023/07/23 00:48:16;;;;;;;13.07;5.45;;;14.80;99.90;;;;;;5002944;28;20104;-83
2023/07/23 00:50:42;;;;;;;11.75;5.60;;;14.80;99.90;;;;;;5001238;28;20053;-83
2023/07/23 00:53:08;;;;;;;11.07;5.68;;;14.80;99.90;;;;;;5003175;28;20561;-83
2023/07/23 00:55:34;;;;;;;13.90;6.43;;;14.80;99.90;;;;;;5001851;28;20081;-82
2023/07/23 00:57:59;;;;;;;12.60;5.97;;;14.80;99.90;;;;;;4970004;28;20038;-83
2023/07/23 01:00:25;;;;;;;11.02;5.80;;;14.70;99.90;;;;;;5000908;28;20054;-83
2023/07/23 01:02:51;;;;;;;13.20;6.32;;;14.70;99.90;;;;;;5001487;28;20047;-82
2023/07/23 01:05:17;;;;;;;12.23;5.50;;;14.80;99.90;;;;;;4986072;28;20136;-82
2023/07/23 01:07:45;;;;;;;13.18;6.25;;;14.70;99.90;;;;;;4986995;28;20030;-82
2023/07/23 01:10:11;;;;;;;11.50;5.85;;;14.70;99.90;;;;;;5018158;28;20128;-83
2023/07/23 01:12:38;;;;;;;12.50;5.72;;;14.70;99.90;;;;;;5001441;28;20062;-83
2023/07/23 01:15:06;;;;;;;11.55;5.68;;;14.70;99.90;;;;;;4987287;28;20042;-82
2023/07/23 01:17:34;;;;;;;12.57;6.10;;;14.70;99.90;;;;;;5004636;28;20038;-82
2023/07/23 01:20:07;;;;;;;12.57;6.38;;;14.70;99.90;;;;;;4989717;28;20045;-82
2023/07/23 01:22:34;;;;;;;15.52;6.18;;;14.70;99.90;;;;;;4974506;28;20038;-83
2023/07/23 01:25:01;;;;;;;13.10;5.72;;;14.70;99.90;;;;;;5005472;28;20634;-82
2023/07/23 01:27:27;;;;;;;12.65;6.40;;;14.70;99.90;;;;;;5003707;28;20037;-83
2023/07/23 01:29:52;;;;;;;12.40;5.72;;;14.70;99.90;;;;;;5003765;28;20041;-84
2023/07/23 01:32:18;;;;;;;12.02;5.90;;;14.70;99.90;;;;;;4970398;28;20057;-83
2023/07/23 01:34:44;;;;;;;12.80;5.70;;;14.70;99.90;;;;;;4992396;28;20044;-85
2023/07/23 01:37:10;;;;;;;12.43;6.15;;;14.70;99.90;;;;;;5006845;28;20045;-83
2023/07/23 01:39:36;;;;;;;13.65;6.45;;;14.70;99.90;;;;;;5024419;28;20549;-82
2023/07/23 01:42:03;;;;;;;11.73;5.80;;;14.70;99.90;;;;;;4992880;28;20449;-84
2023/07/23 01:44:29;;;;;;;10.20;5.07;;;14.70;99.90;;;;;;4977145;28;20590;-84
2023/07/23 01:46:55;;;;;;;11.25;5.45;;;14.70;99.90;;;;;;4976349;28;20124;-84
2023/07/23 01:49:20;;;;;;;12.32;6.18;;;14.70;99.90;;;;;;4993607;28;20043;-83
2023/07/23 01:51:46;;;;;;;11.82;5.78;;;14.70;99.90;;;;;;4988294;28;20168;-84
2023/07/23 01:54:12;;;;;;;10.32;5.60;;;14.80;99.90;;;;;;4994586;28;20052;-83
2023/07/23 01:56:37;;;;;;;12.32;5.60;;;14.80;99.90;;;;;;4969750;28;20522;-84
2023/07/23 01:59:04;;;;;;;10.80;5.40;;;14.80;99.90;;;;;;4991239;28;20048;-84
2023/07/23 02:01:30;;;;;;;12.05;5.53;;;14.80;99.90;;;;;;4976169;28;20037;-84
2023/07/23 02:03:56;;;;;;;10.93;5.55;;;14.70;99.90;;;;;;5005878;28;20526;-83
2023/07/23 02:06:21;;;;;;;10.82;5.45;;;14.80;99.90;;;;;;4993483;28;20115;-85
2023/07/23 02:08:47;;;;;;;13.18;5.68;;;14.80;99.90;;;;;;4992357;28;20164;-84
2023/07/23 02:11:13;;;;;;;11.68;5.43;;;14.80;99.90;;;;;;4992242;28;20048;-83
2023/07/23 02:13:38;;;;;;;11.88;5.72;;;14.90;99.90;;;;;;4990917;28;20136;-84
2023/07/23 02:16:04;;;;;;;11.75;5.57;;;14.80;99.90;;;;;;4993821;28;20056;-84
2023/07/23 02:18:33;;;;;;;10.57;4.85;;;14.80;99.90;;;;;;5007550;28;20057;-83
2023/07/23 02:20:58;;;;;;;10.40;5.22;;;14.80;99.90;;;;;;4976107;28;20045;-83
2023/07/23 02:23:24;;;;;;;11.15;5.25;;;14.80;99.90;;;;;;4991703;28;20044;-82
2023/07/23 02:25:50;;;;;;;11.50;5.68;;;14.80;99.90;;;;;;5008241;28;20491;-83
2023/07/23 02:28:16;;;;;;;10.73;4.80;;;14.80;99.90;;;;;;4992068;28;20510;-82
2023/07/23 02:30:42;;;;;;;12.60;5.07;;;14.80;99.90;;;;;;5008059;28;20473;-82
2023/07/23 02:33:08;;;;;;;11.63;5.28;;;14.80;99.90;;;;;;4990699;28;20033;-82
2023/07/23 02:35:37;;;;;;;11.85;5.50;;;14.80;99.90;;;;;;4992103;28;20064;-82
2023/07/23 02:38:03;;;;;;;11.38;5.40;;;14.80;99.90;;;;;;5023943;28;20398;-82
2023/07/23 02:40:33;;;;;;;13.60;5.53;;;14.80;99.90;;;;;;4990169;28;20091;-82
2023/07/23 02:42:58;;;;;;;10.98;5.28;;;14.80;99.90;;;;;;5008144;28;20380;-82
2023/07/23 02:45:24;;;;;;;11.05;5.40;;;14.80;99.90;;;;;;5008244;28;20049;-82
2023/07/23 02:47:50;;;;;;;11.95;5.57;;;14.90;99.90;;;;;;4992332;28;20121;-82
2023/07/23 02:50:16;;;;;;;13.80;5.93;;;14.80;99.90;;;;;;4958251;28;20056;-84
2023/07/23 02:52:41;;;;;;;11.18;5.53;;;14.80;99.90;;;;;;4975470;28;20052;-83
2023/07/23 02:55:07;;;;;;;11.23;5.38;;;14.90;99.90;;;;;;4990724;28;20065;-82
2023/07/23 02:57:33;;;;;;;11.57;5.60;;;14.80;99.90;;;;;;4990850;28;20033;-83
2023/07/23 02:59:59;;;;;;;13.85;5.32;;;14.80;99.90;;;;;;5007094;28;20114;-82
2023/07/23 03:02:24;;;;;;;11.52;5.70;;;14.80;99.90;;;;;;4990653;28;20175;-82
2023/07/23 03:04:50;;;;;;;11.40;5.35;;;14.80;99.90;;;;;;4993679;28;20041;-82
2023/07/23 03:07:16;;;;;;;12.15;5.30;;;14.80;99.90;;;;;;4990206;28;20113;-83
2023/07/23 03:09:41;;;;;;;13.32;5.78;;;14.80;99.90;;;;;;4975750;28;20455;-83
2023/07/23 03:12:09;;;;;;;11.25;5.45;;;14.80;99.90;;;;;;4975461;28;20034;-83
2023/07/23 03:14:35;;;;;;;10.52;5.18;;;14.80;99.90;;;;;;4991576;28;20156;-83
2023/07/23 03:17:01;;;;;;;11.18;5.50;;;14.80;99.90;;;;;;4973201;28;20112;-82
2023/07/23 03:19:27;;;;;;;11.90;5.18;;;14.80;99.90;;;;;;5006652;28;20091;-83
2023/07/23 03:21:52;;;;;;;11.68;5.85;;;14.80;99.90;;;;;;4991768;28;20076;-82
2023/07/23 03:24:18;;;;;;;11.70;5.50;;;14.80;99.90;;;;;;5001272;28;20561;-83
2023/07/23 03:26:44;;;;;;;12.85;6.10;;;14.80;99.90;;;;;;4992634;28;20041;-83
2023/07/23 03:29:10;;;;;;;13.65;6.28;;;14.80;99.90;;;;;;5005574;28;20080;-83
2023/07/23 03:31:35;;;;;;;12.07;6.03;;;14.80;99.90;;;;;;5007061;28;20119;-83
2023/07/23 03:34:01;;;;;;;14.00;6.45;;;14.80;99.90;;;;;;4990616;28;20498;-82
2023/07/23 03:36:27;;;;;;;11.32;5.70;;;14.80;99.90;;;;;;4976745;28;20060;-83
2023/07/23 03:38:53;;;;;;;12.70;5.85;;;14.80;99.90;;;;;;5004206;28;20033;-82
2023/07/23 03:41:19;;;;;;;13.40;6.20;;;14.80;99.90;;;;;;4987446;28;20052;-82
2023/07/23 03:43:44;;;;;;;11.00;5.88;;;14.80;99.90;;;;;;5020966;28;20037;-83
2023/07/23 03:46:10;;;;;;;12.63;6.22;;;14.80;99.90;;;;;;4990981;28;20435;-83
2023/07/23 03:48:36;;;;;;;12.98;6.32;;;14.80;99.90;;;;;;4991351;28;20038;-83
2023/07/23 03:51:01;;;;;;;13.30;6.53;;;14.80;99.90;;;;;;5007876;28;20259;-82
2023/07/23 03:53:27;;;;;;;12.45;6.43;;;14.80;99.90;;;;;;4987238;28;20769;-82
2023/07/23 03:55:53;;;;;;;13.73;6.63;;;14.80;99.90;;;;;;4975617;28;20033;-82
2023/07/23 03:58:18;;;;;;;13.40;7.13;;;14.80;99.90;;;;;;4975157;28;20041;-81
2023/07/23 04:00:44;;;;;;;13.32;6.57;;;14.80;99.90;;;;;;4988792;28;20112;-82
2023/07/23 04:03:10;;;;;;;13.35;6.30;;;14.80;99.90;;;;;;5008163;28;20529;-82
2023/07/23 04:05:36;;;;;;;12.52;6.32;;;14.80;99.90;;;;;;4992661;28;20125;-82
2023/07/23 04:08:02;;;;;;;12.93;6.47;;;14.90;99.90;;;;;;4973362;28;20403;-82
2023/07/23 04:10:28;;;;;;;11.73;6.15;;;14.90;99.90;;;;;;5007908;28;20037;-82
2023/07/23 04:12:54;;;;;;;11.90;6.40;;;14.90;99.90;;;;;;4974792;28;20052;-82
2023/07/23 04:15:19;;;;;;;12.63;6.63;;;14.80;99.90;;;;;;4990518;28;20168;-81
2023/07/23 04:17:45;;;;;;;15.82;6.65;;;14.90;99.90;;;;;;5007679;28;20045;-82
2023/07/23 04:20:11;;;;;;;14.55;6.68;;;14.90;99.90;;;;;;4991933;28;20429;-81
2023/07/23 04:22:37;;;;;;;12.30;6.22;;;14.90;99.90;;;;;;4974217;28;20452;-81
2023/07/23 04:25:03;;;;;;;12.38;6.47;;;14.90;99.90;;;;;;4989494;28;20041;-81
2023/07/23 04:27:28;;;;;;;13.68;6.45;;;14.90;99.90;;;;;;5008177;28;20034;-81
2023/07/23 04:29:54;;;;;;;12.25;6.20;;;14.90;99.90;;;;;;4989998;28;20057;-82
2023/07/23 04:32:20;;;;;;;12.18;6.18;;;14.90;99.90;;;;;;4986393;28;20041;-81
2023/07/23 04:34:46;;;;;;;12.85;5.80;;;14.90;99.90;;;;;;5007172;28;20053;-81
2023/07/23 04:37:13;;;;;;;12.27;6.07;;;14.90;99.90;;;;;;5006180;28;20091;-81
2023/07/23 04:39:39;;;;;;;13.90;6.32;;;14.90;99.90;;;;;;5008587;28;20033;-80
2023/07/23 04:42:05;;;;;;;12.20;5.60;;;14.90;99.90;;;;;;5005429;28;20441;-80
2023/07/23 04:44:30;;;;;;;14.27;6.45;;;14.90;99.90;;;;;;4972094;28;20030;-81
2023/07/23 04:46:56;;;;;;;14.00;6.30;;;14.90;99.90;;;;;;4990793;28;20037;-81
2023/07/23 04:49:22;;;;;;;11.07;5.97;;;14.90;99.90;;;;;;4974931;28;20042;-81
2023/07/23 04:51:47;;;;;;;11.13;5.60;;;14.90;99.90;;;;;;5004646;28;20038;-81
2023/07/23 04:54:13;;;;;;;13.25;6.28;;;14.90;99.90;;;;;;5005359;28;20053;-81
2023/07/23 04:56:39;;;;;;;14.93;6.47;;;15.00;99.90;;;;;;4975069;28;20188;-81
2023/07/23 04:59:04;;;;;;;11.93;6.35;;;15.00;99.90;;;;;;5007668;28;20038;-81
2023/07/23 05:01:30;;;;;;;12.80;6.22;;;14.90;99.90;;;;;;4989219;28;20123;-80
2023/07/23 05:03:56;;;;;;;12.13;5.57;;;15.00;99.90;;;;;;4988850;28;20073;-81
2023/07/23 05:06:23;;;;;;;11.50;6.20;;;15.00;99.90;;;;;;4974298;28;20037;-80
2023/07/23 05:08:49;;;;;;;12.63;6.25;;;15.00;99.90;;;;;;4991994;28;20035;-81
2023/07/23 05:11:15;;;;;;;12.98;6.35;;;15.00;99.90;;;;;;4977217;28;20448;-82
2023/07/23 05:13:40;;;;;;;12.98;6.53;;;15.00;99.90;;;;;;4992903;28;20033;-81
2023/07/23 05:16:06;;;;;;;12.02;6.22;;;15.00;99.90;;;;;;4992043;28;20095;-81
2023/07/23 05:18:33;;;;;;;11.90;6.03;;;15.00;99.90;;;;;;4999254;28;20060;-81
2023/07/23 05:21:02;;;;;;;11.70;6.07;;;15.00;99.90;;;;;;5007489;28;20038;-81
2023/07/23 05:23:28;;;;;;;12.73;6.72;;;15.10;99.90;;;;;;4992314;28;20045;-80
2023/07/23 05:25:56;;;;;;;14.50;6.78;;;15.10;99.90;;;;;;5008146;28;20066;-81
2023/07/23 05:28:21;;;;;;;14.70;6.75;;;15.00;99.90;;;;;;4975714;28;20041;-81
2023/07/23 05:30:47;;;;;;;11.88;6.35;;;15.00;99.90;;;;;;4995543;28;20091;-81
2023/07/23 05:33:13;;;;;;;13.60;6.80;;;15.00;99.90;;;;;;5009236;28;20041;-82
2023/07/23 05:35:39;;;;;;;14.95;7.00;;;15.00;99.90;;;;;;4989050;28;21766;-81
2023/07/23 05:38:04;;;;;;;12.52;6.68;;;15.00;99.90;;;;;;4976200;28;20421;-81
2023/07/23 05:40:35;;;;;;;11.73;6.38;;;15.00;99.90;;;;;;5012125;28;20065;-81
2023/07/23 05:43:06;;;;;;;13.02;6.53;;;15.00;99.90;;;;;;5030128;28;20049;-81
2023/07/23 05:45:32;;;;;;;12.88;6.63;;;15.00;99.90;;;;;;4996130;28;20601;-81
2023/07/23 05:47:58;;;;;;;14.30;6.80;;;15.00;99.90;;;;;;4989487;28;20193;-82
2023/07/23 05:50:23;;;;;;;12.82;6.88;;;15.00;99.90;;;;;;4999703;28;20048;-81
2023/07/23 05:52:49;;;;;;;13.00;7.03;;;15.10;99.90;;;;;;4990225;28;20041;-81
2023/07/23 05:55:15;;;;;;;13.48;7.07;;;15.00;99.90;;;;;;4979485;28;20363;-81
2023/07/23 05:57:41;;;;;;;14.57;7.40;;;15.10;99.90;;;;;;4974234;28;20482;-82
2023/07/23 06:00:07;;;;;;;13.25;7.53;;;15.00;99.90;;;;;;4976263;28;20048;-82
2023/07/23 06:02:33;;;;;;;14.40;6.90;;;15.00;99.90;;;;;;4995841;28;20521;-82
2023/07/23 06:04:59;;;;;;;11.55;6.68;;;;;;;;;;5011299;28;20086;-82
2023/07/23 06:07:25;;;;;;;12.43;7.20;;;14.80;99.90;;;;;;5009159;28;20045;-81
2023/07/23 06:09:50;;;;;;;13.77;7.68;;;15.10;99.90;;;;;;4965330;28;20402;-82
2023/07/23 06:12:16;;;;;;;12.43;6.95;;;15.10;99.90;;;;;;4991134;28;20033;-81
2023/07/23 06:14:42;;;;;;;14.43;7.20;;;15.10;99.90;;;;;;4995859;28;20041;-81
2023/07/23 06:17:07;;;;;;;14.27;7.50;;;15.10;99.90;;;;;;4997143;28;20124;-82
2023/07/23 06:19:33;;;;;;;14.38;7.82;;;15.20;99.90;;;;;;5006082;28;20128;-82
2023/07/23 06:21:59;;;;;;;13.90;7.43;;;15.20;99.90;;;;;;4991325;28;20049;-82
2023/07/23 06:24:24;;;;;;;13.93;7.47;;;15.10;99.90;;;;;;4989206;28;20068;-83
2023/07/23 06:26:50;;;;;;;13.43;6.90;;;15.20;99.90;;;;;;4990436;28;20042;-84
2023/07/23 06:29:16;;;;;;;15.05;7.70;;;15.20;99.90;;;;;;5001903;28;20034;-84
2023/07/23 06:31:41;;;;;;;14.57;7.93;;;15.20;99.90;;;;;;5031934;28;20423;-84
2023/07/23 06:34:09;;;;;;;14.65;6.93;;;15.20;99.90;;;;;;4984694;28;20124;-83
2023/07/23 06:36:35;;;;;;;14.35;7.68;;;15.30;99.90;;;;;;4974481;28;20044;-82
2023/07/23 06:39:00;;;;;;;15.75;8.07;;;15.30;99.90;;;;;;4989353;28;20042;-83
2023/07/23 06:41:27;;;;;;;13.48;7.35;;;15.40;99.90;;;;;;5006199;28;20111;-84
2023/07/23 06:43:53;;;;;;;13.25;7.43;;;15.40;99.90;;;;;;4991938;28;20128;-84
2023/07/23 06:46:20;;;;;;;14.27;7.18;;;15.40;99.90;;;;;;4989382;28;20165;-82
2023/07/23 06:48:46;;;;;;;14.25;7.70;;;15.50;99.90;;;;;;4975404;28;20046;-82
2023/07/23 06:51:12;;;;;;;14.30;7.70;;;15.40;99.90;;;;;;4989280;28;20064;-82
2023/07/23 06:53:38;;;;;;;13.80;7.10;;;15.50;99.90;;;;;;4987464;28;20526;-82
2023/07/23 06:56:08;;;;;;;14.00;7.72;;;15.50;99.90;;;;;;4993654;28;20042;-83
2023/07/23 06:58:38;;;;;;;14.32;8.40;;;15.60;99.90;;;;;;4991788;28;20533;-82
2023/07/23 07:01:05;;;;;;;15.02;8.20;;;15.60;99.90;;;;;;5007249;28;20048;-81
2023/07/23 07:03:30;;;;;;;14.88;7.25;;;15.70;99.90;;;;;;5007478;28;20396;-81
2023/07/23 07:05:57;;;;;;;13.30;7.95;;;15.70;99.90;;;;;;4991485;28;20091;-82
2023/07/23 07:08:23;;;;;;;14.05;7.85;;;15.80;99.90;;;;;;4987727;28;20065;-82
2023/07/23 07:10:49;;;;;;;12.73;7.60;;;15.80;99.90;;;;;;4975446;28;20076;-82
2023/07/23 07:13:15;;;;;;;16.77;8.25;;;15.90;99.90;;;;;;4972229;28;20070;-82
2023/07/23 07:15:41;;;;;;;15.20;8.30;;;15.90;99.90;;;;;;4978650;28;20069;-82
2023/07/23 07:18:08;;;;;;;14.35;7.35;;;15.90;99.90;;;;;;4974481;28;20104;-82
2023/07/23 07:20:33;;;;;;;15.85;7.25;;;15.90;99.90;;;;;;5005158;28;20049;-81
2023/07/23 07:22:59;;;;;;;13.63;8.43;;;15.90;99.90;;;;;;4645688;28;10000535;-82
2023/07/23 07:25:25;;;;;;;13.85;8.20;;;15.90;99.90;;;;;;4659520;28;9999638;-81
2023/07/23 07:27:51;;;;;;;14.50;7.78;;;15.90;99.90;;;;;;4985962;28;20464;-81
2023/07/23 07:30:18;;;;;;;14.27;8.10;;;15.90;99.90;;;;;;5000630;28;20069;-82
2023/07/23 07:32:44;;;;;;;15.60;7.35;;;15.90;99.90;;;;;;5017505;28;20049;-82
2023/07/23 07:35:09;;;;;;;15.48;8.13;;;15.90;99.90;;;;;;4990643;28;20266;-81
2023/07/23 07:37:35;;;;;;;13.20;7.65;;;16.00;99.90;;;;;;4991151;28;20037;-81
2023/07/23 07:40:01;;;;;;;14.32;8.23;;;16.00;99.90;;;;;;4985797;28;20456;-81
2023/07/23 07:42:26;;;;;;;16.95;8.80;;;16.00;99.90;;;;;;5000775;28;20130;-81
2023/07/23 07:44:52;;;;;;;15.32;8.32;;;16.00;99.90;;;;;;4999593;28;20057;-81
2023/07/23 07:47:18;;;;;;;16.17;7.70;;;16.10;99.90;;;;;;4972589;28;20172;-80
2023/07/23 07:49:43;;;;;;;15.10;8.68;;;16.10;99.90;;;;;;4986855;28;20048;-80
2023/07/23 07:52:11;;;;;;;14.93;8.13;;;16.10;99.90;;;;;;4972516;28;20045;-81
2023/07/23 07:54:37;;;;;;;15.50;8.73;;;16.10;99.90;;;;;;4972145;28;20128;-81
2023/07/23 07:57:03;;;;;;;15.20;8.13;;;16.20;99.90;;;;;;4985799;28;20128;-81
2023/07/23 07:59:29;;;;;;;15.07;7.78;;;16.20;99.90;;;;;;4989120;28;21114;-82
2023/07/23 08:01:56;;;;;;;16.42;8.88;;;16.20;99.90;;;;;;5006286;28;20049;-81
2023/07/23 08:04:22;;;;;;;14.77;8.30;;;16.20;99.90;;;;;;4990037;28;20061;-81
2023/07/23 08:06:48;;;;;;;15.88;7.85;;;16.20;99.90;;;;;;4990290;28;20492;-80
2023/07/23 08:09:17;;;;;;;15.55;8.27;;;16.30;99.90;;;;;;5002339;28;20054;-81
2023/07/23 08:11:46;;;;;;;15.10;8.00;;;16.30;99.90;;;;;;4985029;28;20112;-81
2023/07/23 08:14:13;;;;;;;14.55;8.32;;;16.30;99.90;;;;;;5004412;28;20128;-80
2023/07/23 08:16:40;;;;;;;17.65;8.32;;;16.30;99.90;;;;;;4965566;28;20533;-80
2023/07/23 08:19:06;;;;;;;16.10;8.60;;;16.30;99.90;;;;;;4984608;28;20049;-81
2023/07/23 08:21:32;;;;;;;15.13;8.10;;;16.20;99.90;;;;;;4985252;28;21455;-79
2023/07/23 08:23:58;;;;;;;15.45;7.72;;;16.30;99.90;;;;;;5004897;28;20065;-81
2023/07/23 08:26:26;;;;;;;17.40;8.35;;;16.30;99.90;;;;;;4980936;28;20045;-81
2023/07/23 08:28:58;;;;;;;14.65;7.85;;;16.30;99.90;;;;;;5005124;28;20088;-81
2023/07/23 08:31:24;;;;;;;17.05;8.35;;;16.30;99.90;;;;;;5005705;28;20391;-80
2023/07/23 08:33:52;;;;;;;14.60;7.68;;;16.30;99.90;;;;;;5020985;28;20070;-81
2023/07/23 08:36:18;;;;;;;12.85;7.53;;;16.30;99.90;;;;;;4987133;28;20042;-82
2023/07/23 08:38:44;;;;;;;12.70;7.55;;;16.30;99.90;;;;;;5004717;28;20034;-81
2023/07/23 08:41:49;;;;;;;14.45;7.93;;;16.30;99.90;;;;;;4972892;28;20052;-81
2023/07/23 08:45:01;;;;;;;12.68;7.53;;;16.30;99.90;;;;;;4975553;28;20049;-81
2023/07/23 08:47:29;;;;;;;14.23;7.70;;;16.30;99.90;;;;;;5008744;28;20045;-81
2023/07/23 08:49:56;;;;;;;13.77;7.47;;;16.30;99.90;;;;;;5010706;28;20502;-81
2023/07/23 08:52:23;;;;;;;15.45;7.70;;;16.30;99.90;;;;;;5008640;28;20049;-81
2023/07/23 08:54:49;;;;;;;13.75;7.35;;;16.30;99.90;;;;;;5008395;28;20049;-81
2023/07/23 08:57:15;;;;;;;13.80;8.10;;;16.30;99.90;;;;;;5004619;28;20046;-82
2023/07/23 08:59:42;;;;;;;15.00;7.57;;;16.30;99.90;;;;;;5004799;28;20040;-81
2023/07/23 09:02:13;;;;;;;11.80;7.18;;;16.30;99.90;;;;;;4990764;28;20042;-81
2023/07/23 09:04:39;;;;;;;13.63;7.45;;;16.30;99.90;;;;;;5007611;28;20495;-81
2023/07/23 09:07:10;;;;;;;14.00;7.60;;;16.30;99.90;;;;;;4992236;28;20117;-82
2023/07/23 09:09:35;;;;;;;13.93;7.50;;;16.30;99.90;;;;;;4993379;28;20079;-82
2023/07/23 09:12:03;;;;;;;13.05;7.45;;;16.30;99.90;;;;;;5008858;28;20366;-81
2023/07/23 09:14:29;;;;;;;11.95;6.90;;;16.30;99.90;;;;;;4991232;28;20049;-82
2023/07/23 09:16:55;;;;;;;13.15;8.07;;;16.30;99.90;;;;;;5006690;28;20278;-80
2023/07/23 09:19:24;;;;;;;14.25;7.72;;;16.30;99.90;;;;;;4986435;28;20483;-81
2023/07/23 09:21:50;;;;;;;12.85;7.75;;;16.30;99.90;;;;;;5023734;28;20121;-81
2023/07/23 09:24:16;;;;;;;12.60;7.55;;;16.30;99.90;;;;;;5010365;28;20125;-81
2023/07/23 09:26:42;;;;;;;14.60;8.07;;;16.30;99.90;;;;;;4998910;28;20030;-81
2023/07/23 09:29:10;;;;;;;14.48;7.80;;;16.30;99.90;;;;;;4999938;28;20065;-81
2023/07/23 09:31:41;;;;;;;14.18;7.78;;;16.30;99.90;;;;;;5007225;28;20092;-81
2023/07/23 09:34:07;;;;;;;13.63;8.20;;;16.30;99.90;;;;;;5005345;28;20061;-80
2023/07/23 09:36:33;;;;;;;14.10;7.68;;;16.30;99.90;;;;;;4990320;28;20065;-80
2023/07/23 09:39:00;;;;;;;12.20;7.30;;;16.40;99.90;;;;;;4988451;28;20076;-80
2023/07/23 09:41:35;;;;;;;12.63;7.68;;;16.40;99.90;;;;;;4991354;28;20564;-81
2023/07/23 09:44:12;;;;;;;14.73;7.43;;;16.40;99.90;;;;;;5010719;28;20131;-80
2023/07/23 09:46:45;;;;;;;13.88;7.25;;;16.40;99.90;;;;;;4995279;28;20121;-80
2023/07/23 09:49:12;;;;;;;13.13;7.90;;;16.40;99.90;;;;;;4995218;28;20046;-81
2023/07/23 09:51:38;;;;;;;12.63;6.90;;;16.50;99.90;;;;;;5006131;28;20053;-80
2023/07/23 09:54:05;;;;;;;15.18;7.22;;;16.50;99.90;;;;;;5008191;28;20408;-80
2023/07/23 09:56:34;;;;;;;13.73;6.63;;;16.50;99.90;;;;;;5027935;28;20077;-81
2023/07/23 09:59:00;;;;;;;13.80;7.63;;;16.40;99.90;;;;;;4993933;28;20041;-80
2023/07/23 10:01:28;;;;;;;11.98;7.15;;;16.50;99.90;;;;;;5009013;28;20049;-80
2023/07/23 10:03:54;;;;;;;13.13;6.80;;;16.50;99.90;;;;;;4991360;28;20042;-81
2023/07/23 10:06:21;;;;;;;13.30;6.90;;;16.40;99.90;;;;;;5011926;28;20419;-81
2023/07/23 10:08:48;;;;;;;12.90;7.00;;;16.50;99.90;;;;;;5027518;28;20045;-81
2023/07/23 10:11:16;;;;;;;12.55;6.93;;;16.50;99.90;;;;;;5009798;28;20034;-81
2023/07/23 10:13:42;;;;;;;13.40;6.88;;;16.40;99.90;;;;;;5008591;28;20100;-81
2023/07/23 10:16:14;;;;;;;13.20;6.90;;;16.50;99.90;;;;;;4994162;28;20499;-81
2023/07/23 10:18:42;;;;;;;11.93;6.50;;;16.50;99.90;;;;;;5010836;28;20049;-81
2023/07/23 10:21:09;;;;;;;12.95;6.93;;;16.50;99.90;;;;;;5011025;28;20070;-81
2023/07/23 10:23:40;;;;;;;12.00;6.72;;;16.50;99.90;;;;;;4986764;28;20463;-81
2023/07/23 10:26:28;;;;;;;12.93;6.72;;;16.50;99.90;;;;;;4992925;28;20038;-81
2023/07/23 10:29:08;;;;;;;12.68;6.95;;;16.50;99.90;;;;;;4994362;28;20037;-81
2023/07/23 10:31:35;;;;;;;14.18;6.85;;;16.50;99.90;;;;;;5010548;28;20034;-81
2023/07/23 10:34:00;;;;;;;13.05;7.00;;;16.50;99.90;;;;;;5007769;28;20499;-81
2023/07/23 10:36:26;;;;;;;12.82;7.18;;;16.50;99.90;;;;;;5010834;28;20044;-81
2023/07/23 10:39:14;;;;;;;15.70;6.78;;;16.50;99.90;;;;;;4993954;28;20095;-81
2023/07/23 10:41:51;;;;;;;13.93;7.65;;;16.50;99.90;;;;;;5027162;28;20069;-81
2023/07/23 10:44:24;;;;;;;12.77;6.70;;;16.50;99.90;;;;;;4990575;28;20034;-81
2023/07/23 10:46:50;;;;;;;13.60;6.85;;;16.50;99.90;;;;;;4992467;28;20606;-81
2023/07/23 10:49:26;;;;;;;14.07;6.95;;;16.60;99.90;;;;;;4987222;28;20128;-82
2023/07/23 10:51:52;;;;;;;11.70;6.60;;;16.60;99.90;;;;;;4646553;28;9999919;-81
2023/07/23 10:54:21;;;;;;;12.02;6.43;;;16.60;99.90;;;;;;4990263;28;20078;-81
2023/07/23 10:56:49;;;;;;;11.93;6.57;;;16.70;99.90;;;;;;5007969;28;20077;-81
2023/07/23 10:59:16;;;;;;;12.23;6.78;;;16.70;99.90;;;;;;4990800;28;20693;-81
2023/07/23 11:01:44;;;;;;;11.00;6.10;;;16.70;99.90;;;;;;4991341;28;20053;-82
2023/07/23 11:04:16;;;;;;;11.52;6.60;;;16.70;99.90;;;;;;4976333;28;20041;-80
2023/07/23 11:07:08;;;;;;;10.90;6.38;;;16.80;99.90;;;;;;4985833;28;20049;-81
2023/07/23 11:09:35;;;;;;;13.38;6.82;;;16.80;99.90;;;;;;5001201;28;20050;-81
2023/07/23 11:12:05;;;;;;;11.88;6.50;;;16.80;99.90;;;;;;4956023;28;20046;-81
2023/07/23 11:14:35;;;;;;;12.15;6.38;;;16.80;99.90;;;;;;5020766;28;20054;-80
2023/07/23 11:17:03;;;;;;;12.13;6.22;;;16.90;99.90;;;;;;4985975;28;20049;-80
2023/07/23 11:19:31;;;;;;;11.93;6.43;;;16.90;99.90;;;;;;4997297;28;20159;-81
2023/07/23 11:22:04;;;;;;;11.23;6.22;;;16.90;99.90;;;;;;4986271;28;20054;-80
2023/07/23 11:24:30;;;;;;;12.35;6.45;;;17.00;99.90;;;;;;5024570;28;20041;-81
2023/07/23 11:26:58;;;;;;;13.75;6.60;;;17.00;99.90;;;;;;4990276;28;20491;-81
2023/07/23 11:29:25;;;;;;;14.20;7.10;;;17.10;99.90;;;;;;5002668;28;20440;-80
2023/07/23 11:31:54;;;;;;;10.55;6.30;;;17.10;99.90;;;;;;4988017;28;20503;-81
2023/07/23 11:34:21;;;;;;;14.88;6.90;;;17.10;99.90;;;;;;4999306;28;20049;-81
2023/07/23 11:36:52;;;;;;;12.43;6.22;;;17.10;99.90;;;;;;5002129;28;20041;-82
2023/07/23 11:39:19;;;;;;;13.27;6.93;;;17.20;99.90;;;;;;4986615;28;20038;-81
2023/07/23 11:41:45;;;;;;;12.80;6.97;;;17.20;99.90;;;;;;5004517;28;20137;-81
2023/07/23 11:44:11;;;;;;;12.30;7.03;;;17.20;99.90;;;;;;4987711;28;20152;-81
2023/07/23 11:46:41;;;;;;;11.93;6.40;;;17.20;99.90;;;;;;4973796;28;20170;-81
2023/07/23 11:49:12;;;;;;;11.88;6.45;;;17.20;99.90;;;;;;4990812;28;20037;-81
2023/07/23 11:51:38;;;;;;;12.43;6.93;;;17.20;99.90;;;;;;4989324;28;20050;-81
2023/07/23 11:54:12;;;;;;;12.32;7.00;;;17.20;99.90;;;;;;5020420;28;20065;-81
2023/07/23 11:56:46;;;;;;;11.88;6.47;;;17.20;99.90;;;;;;5007590;28;20526;-81
2023/07/23 11:59:13;;;;;;;12.65;6.65;;;17.20;99.90;;;;;;5022920;28;20050;-81
2023/07/23 12:01:40;;;;;;;11.35;6.30;;;17.20;99.90;;;;;;4988907;28;20042;-81
2023/07/23 12:04:08;;;;;;;11.43;6.40;;;17.20;99.90;;;;;;4973892;28;20539;-81
2023/07/23 12:06:38;;;;;;;11.95;6.40;;;17.30;99.90;;;;;;5007384;28;20038;-81
2023/07/23 12:09:11;;;;;;;11.18;6.00;;;17.20;99.90;;;;;;5021993;28;20029;-81
2023/07/23 12:11:39;;;;;;;12.50;6.03;;;17.20;99.90;;;;;;5006502;28;20129;-81
2023/07/23 12:14:08;;;;;;;11.60;6.50;;;17.20;99.90;;;;;;5005385;28;20125;-82
2023/07/23 12:16:38;;;;;;;11.65;6.00;;;17.20;99.90;;;;;;5002811;28;20407;-81
2023/07/23 12:19:15;;;;;;;11.35;6.28;;;17.20;99.90;;;;;;5004043;28;20511;-80
2023/07/23 12:21:44;;;;;;;10.77;5.78;;;17.20;99.90;;;;;;4988432;28;20499;-81
2023/07/23 12:24:20;;;;;;;10.50;5.60;;;17.20;99.90;;;;;;5005961;28;20495;-81
2023/07/23 12:26:51;;;;;;;10.48;5.72;;;17.20;99.90;;;;;;4999289;28;20042;-81
2023/07/23 12:29:18;;;;;;;10.30;5.22;;;17.30;99.90;;;;;;5003361;28;20057;-82
2023/07/23 12:31:49;;;;;;;11.05;6.07;;;17.30;99.90;;;;;;4988847;28;20038;-81
2023/07/23 12:34:16;;;;;;;10.00;5.60;;;17.30;99.90;;;;;;4990200;28;20133;-81
2023/07/23 12:36:42;;;;;;;12.02;6.07;;;17.40;99.90;;;;;;5005732;28;20034;-81
2023/07/23 12:39:10;;;;;;;12.48;6.00;;;17.70;99.90;;;;;;4987967;28;20049;-81